Time;durP1;ratioP1;P1;durP2;ratioP2;P2;SDS_P1;SDS_P2;PMS_P1;PMS_P2;Temp;Humidity;BMP_temperature;BMP_pressure;BME280_temperature;BME280_humidity;BME280_pressure;Samples;Min_cycle;Max_cycle;Signal;HPM_P1;HPM_P2
2021/11/01 00:01:03;;;;;;;1.17;1.07;;;;;;;13.94;100.00;98809.25;5071306;28;20232;-71
2021/11/01 00:03:28;;;;;;;0.60;0.60;;;;;;;13.95;100.00;98805.34;5071473;28;20691;-71
2021/11/01 00:05:54;;;;;;;1.03;0.93;;;;;;;13.96;100.00;98807.72;5071092;28;20190;-71
2021/11/01 00:08:20;;;;;;;0.73;0.73;;;;;;;13.95;100.00;98805.34;5071256;28;20165;-70
2021/11/01 00:10:45;;;;;;;1.03;0.40;;;;;;;13.94;100.00;98806.50;5071192;28;20251;-70
2021/11/01 00:13:11;;;;;;;0.70;0.70;;;;;;;13.91;100.00;98801.78;5071882;28;20175;-70
2021/11/01 00:15:36;;;;;;;0.60;0.50;;;;;;;13.87;100.00;98800.91;5073525;28;20185;-70
2021/11/01 00:18:02;;;;;;;2.10;0.50;;;;;;;13.86;100.00;98793.84;5071532;28;20178;-71
2021/11/01 00:20:27;;;;;;;0.53;0.53;;;;;;;13.85;100.00;98797.75;5071090;28;20174;-71
2021/11/01 00:22:53;;;;;;;0.50;0.50;;;;;;;13.84;100.00;98798.91;5071132;28;20580;-71
2021/11/01 00:25:20;;;;;;;0.20;0.20;;;;;;;13.82;100.00;98793.03;5070873;28;20174;-71
2021/11/01 00:27:46;;;;;;;1.30;0.30;;;;;;;13.78;99.93;98794.94;5071004;28;20567;-71
2021/11/01 00:30:11;;;;;;;0.27;0.27;;;;;;;13.73;98.99;98808.97;5070893;28;20174;-71
2021/11/01 00:32:38;;;;;;;1.93;0.33;;;;;;;13.70;98.51;98797.56;5070998;28;20598;-71
2021/11/01 00:35:05;;;;;;;0.63;0.30;;;;;;;13.66;98.25;98798.69;5070945;28;20171;-71
2021/11/01 00:37:30;;;;;;;0.70;0.30;;;;;;;13.60;97.85;98787.28;5071295;28;20492;-70
2021/11/01 00:39:58;;;;;;;0.23;0.23;;;;;;;13.56;98.03;98785.63;5070906;28;20180;-71
2021/11/01 00:42:24;;;;;;;0.30;0.20;;;;;;;13.52;97.87;98793.81;5070785;28;20221;-71
2021/11/01 00:44:49;;;;;;;0.30;0.30;;;;;;;13.50;98.02;98790.66;5071018;28;20206;-71
2021/11/01 00:47:16;;;;;;;0.10;0.10;;;;;;;13.46;96.92;98803.53;5070842;28;20177;-70
2021/11/01 00:49:41;;;;;;;1.23;0.40;;;;;;;13.45;95.88;98810.16;5070739;28;20174;-70
2021/11/01 00:52:08;;;;;;;0.20;0.10;;;;;;;13.43;95.07;98817.19;5071137;28;20205;-71
2021/11/01 00:54:35;;;;;;;0.60;0.20;;;;;;;13.40;94.07;98814.03;5071293;28;20262;-70
2021/11/01 00:57:00;;;;;;;0.10;0.10;;;;;;;13.38;93.25;98829.28;5071001;28;20688;-71
2021/11/01 00:59:25;;;;;;;0.20;0.13;;;;;;;13.36;93.36;98826.13;5069888;28;20213;-70
2021/11/01 01:01:51;;;;;;;0.20;0.10;;;;;;;13.35;93.17;98797.91;5071140;28;20618;-71
2021/11/01 01:04:17;;;;;;;0.90;0.10;;;;;;;13.35;92.62;98780.66;5071085;28;20258;-71
2021/11/01 01:06:42;;;;;;;0.47;0.17;;;;;;;13.35;92.80;98775.16;5071008;28;20182;-71
2021/11/01 01:09:08;;;;;;;0.27;0.27;;;;;;;13.34;93.03;98779.06;5070672;28;20256;-71
2021/11/01 01:11:33;;;;;;;0.00;0.00;;;;;;;13.30;92.61;98772.72;5071026;28;20301;-71
2021/11/01 01:14:00;;;;;;;0.40;0.40;;;;;;;13.30;90.95;98791.91;5070934;28;20657;-70
2021/11/01 01:16:26;;;;;;;0.60;0.20;;;;;;;13.24;90.96;98782.44;5070918;28;20173;-70
2021/11/01 01:18:55;;;;;;;0.20;0.10;;;;;;;13.20;90.08;98774.16;5071099;28;20170;-71
2021/11/01 01:24:05;;;;;;;0.33;0.20;;;;;;;13.10;88.70;98775.56;5071195;28;20224;-72
2021/11/01 01:26:32;;;;;;;0.60;0.60;;;;;;;13.06;89.60;98769.22;5071109;28;20178;-73
2021/11/01 01:28:57;;;;;;;0.00;0.00;;;;;;;13.00;90.05;98765.22;5074819;28;20547;-73
2021/11/01 01:31:24;;;;;;;0.30;0.10;;;;;;;12.97;90.45;98765.94;5074513;28;20195;-73
2021/11/01 01:33:49;;;;;;;0.30;0.20;;;;;;;12.92;90.98;98766.28;5073077;28;20170;-73
2021/11/01 01:36:15;;;;;;;1.47;0.43;;;;;;;12.92;91.40;98752.56;5074588;28;20175;-73
2021/11/01 01:38:41;;;;;;;0.80;0.30;;;;;;;12.93;92.03;98767.84;5074633;28;20196;-73
2021/11/01 01:41:22;;;;;;;0.70;0.50;;;;;;;12.90;91.81;98776.03;5074872;28;20630;-73
2021/11/01 01:43:52;;;;;;;0.73;0.20;;;;;;;12.89;92.45;98788.94;5074345;28;20205;-73
2021/11/01 01:46:18;;;;;;;1.80;0.20;;;;;;;12.90;91.72;98787.00;5074506;28;20163;-73
2021/11/01 01:48:44;;;;;;;0.13;0.10;;;;;;;12.87;91.95;98793.19;5074373;28;20178;-73
2021/11/01 01:51:10;;;;;;;4.73;0.40;;;;;;;12.82;92.74;98806.03;5074218;28;20205;-73
2021/11/01 01:53:37;;;;;;;0.47;0.20;;;;;;;12.79;92.52;98804.03;5072980;28;20795;-73
2021/11/01 01:56:05;;;;;;;0.73;0.60;;;;;;;12.75;93.51;98794.97;5073891;28;20261;-73
2021/11/01 01:58:37;;;;;;;0.17;0.17;;;;;;;12.74;93.60;98782.44;5073885;28;20171;-73
2021/11/01 02:01:09;;;;;;;0.20;0.20;;;;;;;12.68;92.99;98770.19;5069671;28;20186;-73
2021/11/01 02:03:36;;;;;;;1.63;0.40;;;;;;;12.64;92.46;98757.59;5074050;28;20163;-73
2021/11/01 02:06:01;;;;;;;2.23;0.50;;;;;;;12.62;93.10;98757.97;5073912;28;20178;-73
2021/11/01 02:08:28;;;;;;;7.40;0.40;;;;;;;12.60;93.19;98756.75;5074190;28;20167;-73
2021/11/01 02:11:02;;;;;;;0.83;0.27;;;;;;;12.57;93.90;98769.22;5073977;28;20214;-73
2021/11/01 02:13:32;;;;;;;2.13;0.17;;;;;;;12.52;93.99;98769.53;5074007;28;20170;-72
2021/11/01 02:15:59;;;;;;;1.97;0.50;;;;;;;12.49;94.42;98768.31;5074083;28;20186;-73
2021/11/01 02:18:27;;;;;;;1.83;0.70;;;;;;;12.46;94.96;98763.56;5073845;28;20172;-73
2021/11/01 02:20:59;;;;;;;1.70;0.50;;;;;;;12.43;95.22;98767.00;5073513;28;20183;-73
2021/11/01 02:23:51;;;;;;;2.23;0.50;;;;;;;12.39;95.58;98757.94;5073788;28;20155;-72
2021/11/01 02:26:18;;;;;;;0.37;0.20;;;;;;;12.33;95.98;98778.59;5073681;28;20163;-73
2021/11/01 02:28:45;;;;;;;1.30;0.70;;;;;;;12.34;95.94;98755.53;5073705;28;20167;-73
2021/11/01 02:31:16;;;;;;;2.50;0.53;;;;;;;12.32;95.96;98752.38;5073598;28;20259;-72
2021/11/01 02:33:43;;;;;;;3.57;1.30;;;;;;;12.24;96.15;98761.59;5073560;28;20498;-73
2021/11/01 02:36:09;;;;;;;1.77;0.70;;;;;;;12.16;96.28;98733.31;5073576;28;20197;-73
2021/11/01 02:38:34;;;;;;;2.63;0.60;;;;;;;12.13;97.05;98749.66;5073414;28;20257;-73
2021/11/01 02:41:15;;;;;;;1.70;0.50;;;;;;;12.10;96.96;98742.16;5073720;28;20265;-72
2021/11/01 02:43:41;;;;;;;2.97;0.73;;;;;;;12.05;97.10;98756.16;5073115;28;20537;-73
2021/11/01 02:46:06;;;;;;;6.33;0.43;;;;;;;12.00;97.26;98773.66;5073172;28;20173;-73
2021/11/01 02:48:32;;;;;;;3.13;0.80;;;;;;;11.98;98.07;98783.38;5073365;28;20570;-73
2021/11/01 02:50:57;;;;;;;3.03;0.83;;;;;;;11.97;98.85;98787.28;5073206;28;20602;-73
2021/11/01 02:53:22;;;;;;;2.33;0.80;;;;;;;11.95;99.37;98789.59;5073304;28;20183;-73
2021/11/01 02:55:48;;;;;;;2.03;0.90;;;;;;;11.93;99.74;98797.38;5073054;28;20369;-73
2021/11/01 02:58:13;;;;;;;1.83;0.80;;;;;;;11.96;100.00;98788.44;5073106;28;20178;-73
2021/11/01 03:00:38;;;;;;;2.60;1.23;;;;;;;11.90;100.00;98785.19;5073157;28;20257;-73
2021/11/01 03:03:05;;;;;;;5.53;2.17;;;;;;;11.80;100.00;98775.63;5073239;28;20178;-73
2021/11/01 03:05:32;;;;;;;5.00;0.63;;;;;;;11.77;100.00;98770.84;5072903;28;20545;-73
2021/11/01 03:07:58;;;;;;;1.40;1.03;;;;;;;11.68;100.00;98773.00;5072666;28;20224;-73
2021/11/01 03:10:24;;;;;;;3.17;1.40;;;;;;;11.64;100.00;98777.59;5072513;28;20721;-73
2021/11/01 03:12:51;;;;;;;3.47;0.93;;;;;;;11.59;100.00;98802.50;5072805;28;20178;-73
2021/11/01 03:15:23;;;;;;;2.07;0.80;;;;;;;11.58;100.00;98796.25;5072643;28;20178;-73
2021/11/01 03:17:52;;;;;;;2.60;1.00;;;;;;;11.51;100.00;98793.34;5072830;28;20208;-73
2021/11/01 03:20:23;;;;;;;1.50;0.60;;;;;;;11.52;100.00;98791.41;5072984;28;20170;-73
2021/11/01 03:22:53;;;;;;;2.07;0.47;;;;;;;11.54;100.00;98780.91;5072735;28;20170;-73
2021/11/01 03:25:26;;;;;;;3.73;1.07;;;;;;;11.54;100.00;98805.50;5071180;28;20279;-73
2021/11/01 03:27:54;;;;;;;1.83;0.53;;;;;;;11.55;100.00;98823.50;5071288;28;20186;-73
2021/11/01 03:30:21;;;;;;;2.60;0.70;;;;;;;11.50;100.00;98835.53;5072408;28;20417;-73
2021/11/01 03:32:48;;;;;;;1.73;0.43;;;;;;;11.52;100.00;98824.22;5072116;28;20275;-73
2021/11/01 03:35:15;;;;;;;3.70;0.80;;;;;;;11.52;100.00;98840.63;5072220;28;20186;-73
2021/11/01 03:37:42;;;;;;;3.00;0.70;;;;;;;11.44;100.00;98834.22;5072410;28;20174;-73
2021/11/01 03:40:09;;;;;;;3.57;0.77;;;;;;;11.42;100.00;98835.72;5072332;28;20170;-73
2021/11/01 03:42:35;;;;;;;1.70;0.73;;;;;;;11.38;100.00;98819.22;5072322;28;20177;-73
2021/11/01 03:45:04;;;;;;;2.07;0.50;;;;;;;11.43;100.00;98815.41;5070798;28;20204;-73
2021/11/01 03:47:38;;;;;;;3.67;1.60;;;;;;;11.37;100.00;98817.66;5072180;28;20508;-73
2021/11/01 03:50:14;;;;;;;1.30;0.80;;;;;;;11.51;100.00;98817.16;5071665;28;20163;-73
2021/11/01 03:52:42;;;;;;;2.43;1.03;;;;;;;11.51;98.93;98806.22;5072121;28;20251;-73
2021/11/01 03:55:08;;;;;;;3.27;1.90;;;;;;;11.47;99.39;98817.09;5071884;28;20513;-73
2021/11/01 03:57:33;;;;;;;2.10;0.87;;;;;;;11.51;98.75;98814.44;5071564;28;20189;-73
2021/11/01 03:59:59;;;;;;;1.27;1.03;;;;;;;11.52;98.32;98818.75;5070536;28;20175;-73
2021/11/01 04:02:25;;;;;;;1.83;0.83;;;;;;;11.52;97.68;98824.22;5070902;28;20177;-73
2021/11/01 04:04:52;;;;;;;1.23;0.87;;;;;;;11.53;97.73;98820.34;5071756;28;20178;-73
2021/11/01 04:07:19;;;;;;;1.87;0.90;;;;;;;11.53;96.71;98823.06;5071662;28;20244;-73
2021/11/01 04:09:44;;;;;;;2.27;0.53;;;;;;;11.51;97.06;98822.66;5071817;28;20245;-73
2021/11/01 04:12:11;;;;;;;1.33;0.60;;;;;;;11.49;96.58;98833.16;5071821;28;20206;-73
2021/11/01 04:15:02;;;;;;;0.30;0.30;;;;;;;11.48;96.93;98837.03;5071546;28;20171;-73
2021/11/01 04:22:32;;;;;;;3.77;0.40;;;;;;;11.45;96.78;98841.28;5071387;28;20212;-73
2021/11/01 04:24:58;;;;;;;1.17;0.40;;;;;;;11.45;96.90;98843.22;5071241;28;20733;-73
2021/11/01 04:27:24;;;;;;;1.27;0.50;;;;;;;11.42;97.54;98841.97;5071252;28;20179;-73
2021/11/01 04:29:49;;;;;;;5.47;2.03;;;;;;;11.41;97.50;98851.31;5071341;28;20534;-73
2021/11/01 04:32:21;;;;;;;3.33;0.93;;;;;;;11.42;97.36;98830.25;5071396;28;20241;-73
2021/11/01 04:34:53;;;;;;;3.33;0.67;;;;;;;11.42;97.82;98841.19;5071279;28;20166;-73
2021/11/01 04:37:19;;;;;;;2.57;0.87;;;;;;;11.44;97.18;98849.84;5071384;28;20162;-73
2021/11/01 04:53:21;;;;;;;0.40;0.23;;;;;;;11.44;95.97;98822.50;5071341;28;20181;-73
2021/11/01 04:55:46;;;;;;;3.10;0.93;;;;;;;11.41;95.89;98821.25;5071134;28;20177;-73
2021/11/01 04:58:12;;;;;;;5.17;1.33;;;;;;;11.41;94.65;98825.94;5071026;28;20174;-73
2021/11/01 05:00:39;;;;;;;4.73;1.20;;;;;;;11.44;94.54;98830.69;5071013;28;20181;-73
2021/11/01 05:03:10;;;;;;;4.03;0.73;;;;;;;11.40;94.09;98821.59;5073853;28;20175;-73
2021/11/01 05:05:36;;;;;;;6.80;0.80;;;;;;;11.39;93.11;98829.00;5075465;28;20516;-73
2021/11/01 05:08:03;;;;;;;0.60;0.50;;;;;;;11.42;93.30;98822.03;5075026;28;20182;-73
2021/11/01 05:10:33;;;;;;;2.40;0.53;;;;;;;11.42;92.60;98803.69;5075159;28;20235;-73
2021/11/01 05:12:59;;;;;;;3.97;1.77;;;;;;;11.46;92.70;98807.31;5075036;28;20260;-73
2021/11/01 05:18:16;;;;;;;1.60;0.70;;;;;;;11.49;92.12;98827.69;5075210;28;20265;-73
2021/11/01 05:23:32;;;;;;;3.37;1.37;;;;;;;11.44;92.73;98827.97;5043016;28;20190;-73
2021/11/01 05:26:09;;;;;;;2.00;0.73;;;;;;;11.45;92.03;98816.66;5075026;28;20198;-73
2021/11/01 05:28:45;;;;;;;1.97;0.47;;;;;;;11.44;92.52;98819.75;5074746;28;20176;-73
2021/11/01 05:31:20;;;;;;;2.10;0.80;;;;;;;11.46;92.17;98822.94;5074736;28;20217;-73
2021/11/01 05:36:14;;;;;;;2.67;1.00;;;;;;;11.37;92.69;98820.38;5074730;28;20217;-72
2021/11/01 05:38:39;;;;;;;4.20;1.67;;;;;;;11.37;92.31;98814.13;5074465;28;20202;-73
2021/11/01 05:41:05;;;;;;;5.70;1.00;;;;;;;11.36;92.27;98810.59;5074513;28;20646;-73
2021/11/01 05:43:31;;;;;;;5.17;1.20;;;;;;;11.36;91.64;98821.53;5074544;28;20166;-73
2021/11/01 05:45:57;;;;;;;1.87;0.70;;;;;;;11.30;92.69;98807.34;5073861;28;20224;-73
2021/11/01 05:48:22;;;;;;;2.90;1.00;;;;;;;11.28;92.23;98825.25;5074256;28;20182;-73
2021/11/01 05:50:48;;;;;;;3.23;0.60;;;;;;;11.26;92.38;98813.88;5074204;28;20204;-73
2021/11/01 05:53:14;;;;;;;1.13;0.43;;;;;;;11.24;92.60;98824.38;5074250;28;20170;-73
2021/11/01 05:55:59;;;;;;;3.07;0.47;;;;;;;11.26;91.14;98822.06;5073944;28;20171;-73
2021/11/01 06:03:28;;;;;;;3.50;0.60;;;;;;;11.27;90.82;98805.31;5074359;28;20633;-73
2021/11/01 06:06:17;;;;;;;3.87;1.37;;;;;;;11.29;91.05;98807.72;5073742;28;20173;-73
2021/11/01 06:09:16;;;;;;;1.80;1.17;;;;;;;11.29;90.98;98799.50;5072582;28;20627;-73
2021/11/01 06:14:27;;;;;;;1.03;0.30;;;;;;;11.29;90.95;98838.59;5073578;28;20228;-73
2021/11/01 06:16:52;;;;;;;2.87;0.80;;;;;;;11.28;90.07;98864.34;5072285;28;20174;-73
2021/11/01 06:19:17;;;;;;;2.37;0.60;;;;;;;11.28;90.11;98861.59;5073697;28;20224;-72
2021/11/01 06:21:46;;;;;;;3.87;0.50;;;;;;;11.24;89.82;98862.66;5073785;28;20170;-73
2021/11/01 06:26:48;;;;;;;2.77;0.60;;;;;;;11.28;89.69;98872.53;5073510;28;20175;-72
2021/11/01 06:29:17;;;;;;;3.13;0.60;;;;;;;11.28;89.36;98864.34;5073732;28;20179;-72
2021/11/01 06:31:46;;;;;;;2.80;0.50;;;;;;;11.24;89.71;98881.78;5073340;28;20203;-72
2021/11/01 06:34:38;;;;;;;2.10;0.40;;;;;;;11.25;88.99;98881.44;5071850;28;20269;-72
2021/11/01 06:50:45;;;;;;;3.23;0.67;;;;;;;11.28;87.06;98871.72;5074272;28;20189;-72
2021/11/01 08:49:04;;;;;;;0.97;0.37;;;;;;;11.59;92.17;98931.88;5070119;28;20216;-73
2021/11/01 08:51:52;;;;;;;1.97;0.87;;;;;;;11.57;91.21;98922.41;5070664;28;20216;-74
2021/11/01 09:02:52;;;;;;;1.30;0.63;;;;;;;11.58;90.73;98940.44;5070792;28;20610;-76
2021/11/01 09:05:43;;;;;;;3.00;0.63;;;;;;;11.53;91.18;98929.75;5070413;28;20174;-80
2021/11/01 09:18:44;;;;;;;0.50;0.33;;;;;;;11.68;88.73;98934.41;5070971;28;20170;-72
2021/11/01 09:19:43;;;;;;;0.93;0.50;;;;;;;11.84;88.41;98962.56;5061517;28;20593;-72
2021/11/01 09:22:15;;;;;;;0.20;0.20;;;;;;;11.89;87.32;98954.09;5063178;28;20585;-72
2021/11/01 09:24:43;;;;;;;2.20;0.70;;;;;;;12.00;86.58;98958.97;5069441;28;20301;-72
2021/11/01 09:27:11;;;;;;;0.77;0.30;;;;;;;12.00;86.24;98940.63;5069987;28;20185;-72
2021/11/01 09:30:06;;;;;;;5.07;0.77;;;;;;;12.00;85.35;98934.34;5069761;28;20197;-71
2021/11/01 09:43:17;;;;;;;0.93;0.20;;;;;;;12.10;85.72;98934.59;5069640;28;20194;-72
2021/11/01 09:45:42;;;;;;;1.03;0.80;;;;;;;12.14;85.17;98946.41;5069394;28;20174;-72
2021/11/01 09:48:08;;;;;;;1.20;0.50;;;;;;;12.15;83.78;98938.97;5070875;28;20220;-72
2021/11/01 09:50:35;;;;;;;3.40;1.20;;;;;;;12.22;83.60;98941.88;5073341;28;20163;-72
2021/11/01 09:53:06;;;;;;;1.30;0.37;;;;;;;12.23;83.68;98940.72;5073462;28;20205;-72
2021/11/01 10:00:53;;;;;;;1.00;0.40;;;;;;;12.32;82.17;98926.84;5073367;28;20257;-73
2021/11/01 10:03:18;;;;;;;0.20;0.20;;;;;;;12.40;80.15;98929.34;5072555;28;20175;-73
2021/11/01 10:05:54;;;;;;;0.67;0.23;;;;;;;12.49;80.52;98935.41;5069245;28;20574;-73
2021/11/01 10:08:19;;;;;;;0.63;0.00;;;;;;;12.48;78.98;98920.13;5072064;28;20170;-73
2021/11/01 10:10:45;;;;;;;1.83;0.57;;;;;;;12.50;79.07;98938.94;5072896;28;20224;-73
2021/11/01 10:13:16;;;;;;;1.13;0.90;;;;;;;12.57;78.45;98944.53;5073459;28;20198;-73
2021/11/01 10:18:25;;;;;;;0.50;0.50;;;;;;;12.67;78.02;98938.50;5073179;28;20209;-73
2021/11/01 10:20:54;;;;;;;2.50;0.50;;;;;;;12.64;76.59;98931.00;5073373;28;20171;-73
2021/11/01 10:23:25;;;;;;;0.00;0.00;;;;;;;12.68;76.35;98928.31;5072869;28;20167;-73
2021/11/01 10:25:52;;;;;;;0.67;0.53;;;;;;;12.70;75.90;98918.56;5072725;28;20173;-74
2021/11/01 10:28:30;;;;;;;3.83;0.77;;;;;;;12.72;74.96;98920.94;5072807;28;20658;-73
2021/11/01 10:31:09;;;;;;;0.10;0.00;;;;;;;12.80;74.43;98914.47;5072713;28;20194;-73
2021/11/01 10:33:45;;;;;;;0.20;0.10;;;;;;;12.79;74.95;98912.88;5067374;28;20201;-73
2021/11/01 10:36:32;;;;;;;2.30;0.40;;;;;;;12.77;74.10;98915.19;5072322;28;20573;-72
2021/11/01 10:39:02;;;;;;;0.30;0.10;;;;;;;12.71;73.40;98905.66;5069090;28;20213;-73
2021/11/01 10:41:43;;;;;;;0.00;0.00;;;;;;;12.66;72.87;98900.50;5071532;28;20174;-73
2021/11/01 10:44:31;;;;;;;0.20;0.20;;;;;;;12.67;73.83;98904.81;5072924;28;20161;-73
2021/11/01 10:47:37;;;;;;;0.63;0.60;;;;;;;12.66;74.18;98903.22;5073063;28;20751;-72
2021/11/01 11:14:41;;;;;;;1.80;0.63;;;;;;;12.71;73.00;98891.97;5071784;28;20633;-73
2021/11/01 11:22:53;;;;;;;0.43;0.33;;;;;;;12.77;71.89;98882.31;5071932;28;20672;-73
2021/11/01 11:25:43;;;;;;;3.80;0.60;;;;;;;12.81;71.24;98883.94;5071316;28;20622;-72
2021/11/01 11:47:42;;;;;;;0.00;0.00;;;;;;;12.99;70.81;98910.88;5071269;28;20189;-71
2021/11/01 11:50:15;;;;;;;2.13;0.50;;;;;;;12.98;70.19;98906.56;5069671;28;20206;-71
2021/11/01 11:52:41;;;;;;;1.60;0.40;;;;;;;13.11;70.86;98908.75;5071017;28;20210;-72
2021/11/01 11:55:32;;;;;;;0.37;0.20;;;;;;;13.13;70.25;98911.13;5069822;28;20196;-72
2021/11/01 11:57:59;;;;;;;0.50;0.10;;;;;;;12.89;68.23;98890.38;5053507;28;20197;-71
2021/11/01 12:00:26;;;;;;;1.20;0.40;;;;;;;12.88;68.80;98905.22;5069998;28;20258;-71
2021/11/01 12:02:53;;;;;;;0.00;0.00;;;;;;;12.85;68.49;98902.41;5070614;28;20228;-71
2021/11/01 12:05:36;;;;;;;0.50;0.30;;;;;;;12.94;69.02;98894.75;5069439;28;20528;-71
2021/11/01 12:08:19;;;;;;;0.10;0.10;;;;;;;13.05;68.85;98906.69;5070825;28;20236;-71
2021/11/01 12:18:59;;;;;;;0.60;0.30;;;;;;;12.88;68.45;98905.22;5070613;28;20227;-71
2021/11/01 12:21:26;;;;;;;0.63;0.20;;;;;;;12.87;68.52;98898.13;5070676;28;20178;-71
2021/11/01 12:23:52;;;;;;;0.47;0.47;;;;;;;12.82;69.92;98896.50;5070825;28;20618;-71
2021/11/01 12:26:20;;;;;;;1.63;0.83;;;;;;;12.84;68.98;98901.59;5070521;28;20261;-71
2021/11/01 12:28:59;;;;;;;0.10;0.10;;;;;;;12.79;67.76;98894.50;5070683;28;20171;-71
2021/11/01 12:31:27;;;;;;;1.00;0.30;;;;;;;12.76;69.09;98891.69;5070503;28;20251;-71
2021/11/01 12:36:39;;;;;;;0.20;0.20;;;;;;;12.80;69.45;98896.06;5070811;28;20177;-71
2021/11/01 12:39:36;;;;;;;0.03;0.03;;;;;;;12.83;68.45;98897.28;5070530;28;20182;-71
2021/11/01 12:58:02;;;;;;;1.60;0.30;;;;;;;12.98;67.28;98887.38;5070542;28;20260;-71
2021/11/01 13:00:38;;;;;;;0.53;0.40;;;;;;;12.96;67.76;98886.94;5070711;28;20601;-71
2021/11/01 13:03:16;;;;;;;0.20;0.10;;;;;;;12.89;68.04;98881.34;5068950;28;20243;-72
2021/11/01 13:05:45;;;;;;;3.13;0.50;;;;;;;12.86;67.58;98884.78;5069934;28;20344;-72
2021/11/01 13:08:14;;;;;;;2.93;0.50;;;;;;;12.92;67.46;98886.09;5070360;28;20231;-72
2021/11/01 13:10:46;;;;;;;0.10;0.10;;;;;;;12.94;67.59;98900.22;5070442;28;20270;-71
2021/11/01 13:19:07;;;;;;;0.13;0.10;;;;;;;12.80;67.46;98884.31;5070733;28;20541;-71
2021/11/01 13:21:43;;;;;;;1.87;0.67;;;;;;;12.92;67.08;98892.38;5070116;28;20308;-71
2021/11/01 13:24:11;;;;;;;1.87;0.47;;;;;;;13.09;68.18;98878.16;5073370;28;20666;-71
2021/11/01 13:34:48;;;;;;;0.20;0.10;;;;;;;13.04;67.16;98886.72;5073987;28;20224;-71
2021/11/01 13:40:08;;;;;;;1.37;0.30;;;;;;;13.04;66.71;98880.44;5074011;28;20205;-71
2021/11/01 13:42:34;;;;;;;0.53;0.47;;;;;;;13.07;67.14;98880.47;5073660;28;20182;-71
2021/11/01 13:45:07;;;;;;;1.00;0.13;;;;;;;13.20;66.36;98883.06;5073796;28;20200;-72
2021/11/01 13:47:51;;;;;;;0.73;0.30;;;;;;;13.27;66.16;98885.91;5073609;28;20171;-72
2021/11/01 13:50:19;;;;;;;1.13;0.20;;;;;;;13.23;65.59;98874.09;5073703;28;20174;-71
2021/11/01 13:53:04;;;;;;;0.13;0.07;;;;;;;13.26;66.10;98895.31;5073492;28;20672;-71
2021/11/01 13:56:17;;;;;;;0.27;0.27;;;;;;;13.17;65.78;98892.00;5073228;28;20171;-72
2021/11/01 13:58:33;;;;;;;0.67;0.67;;;;;;;13.09;66.12;98888.34;5067589;28;20649;-71
2021/11/01 14:17:18;;;;;;;0.70;0.33;;;;;;;12.97;66.60;98892.06;5073109;28;20182;-75
2021/11/01 14:59:58;;;;;;;1.10;0.77;;;;;;;13.25;68.85;98893.72;5072900;28;20171;-77
2021/11/01 15:03:34;;;;;;;1.00;0.90;;;;;;;13.27;69.19;98894.94;5072701;28;20828;-76
2021/11/01 15:26:07;;;;;;;0.50;0.30;;;;;;;12.90;70.38;98899.38;5072111;28;20173;-75
2021/11/01 15:33:57;;;;;;;2.30;0.60;;;;;;;12.71;70.15;98905.66;5071726;28;20221;-76
2021/11/01 15:39:33;;;;;;;0.40;0.20;;;;;;;12.66;70.12;98903.22;5071538;28;20185;-75
2021/11/01 16:17:28;;;;;;;2.73;1.30;;;;;;;12.13;73.57;98922.13;5050998;28;20538;-75
2021/11/01 16:19:54;;;;;;;0.80;0.80;;;;;;;12.01;72.65;98917.59;5070756;28;20250;-75
2021/11/01 16:22:20;;;;;;;1.57;0.70;;;;;;;12.08;73.31;98925.94;5071014;28;20633;-75
2021/11/01 16:24:48;;;;;;;1.77;0.90;;;;;;;12.00;73.69;98934.34;5070747;28;20202;-75
2021/11/01 16:27:15;;;;;;;0.90;0.47;;;;;;;11.94;74.41;98928.38;5069349;28;20175;-75
2021/11/01 16:34:56;;;;;;;1.43;0.63;;;;;;;11.69;76.45;98926.97;5070507;28;20539;-74
2021/11/01 16:37:35;;;;;;;2.47;0.77;;;;;;;11.60;77.02;98927.19;5070606;28;20249;-75
2021/11/01 16:40:09;;;;;;;6.13;3.03;;;;;;;11.55;77.93;98930.19;5070871;28;20163;-75
2021/11/01 16:42:36;;;;;;;2.50;1.00;;;;;;;11.47;77.86;98920.22;5070760;28;20178;-75
2021/11/01 16:45:22;;;;;;;2.13;1.07;;;;;;;11.38;78.86;98922.34;5070920;28;20502;-75
2021/11/01 16:47:48;;;;;;;1.73;0.43;;;;;;;11.38;79.70;98919.59;5070709;28;20195;-75
2021/11/01 16:50:16;;;;;;;2.30;0.63;;;;;;;11.32;80.03;98916.38;5070877;28;20607;-75
2021/11/01 16:52:44;;;;;;;2.63;0.50;;;;;;;11.30;80.47;98924.91;5069040;28;20734;-75
2021/11/01 16:55:21;;;;;;;1.17;0.30;;;;;;;11.26;80.86;98967.75;5070039;28;20173;-75
2021/11/01 16:58:01;;;;;;;1.77;0.57;;;;;;;11.29;81.54;98925.28;5070416;28;20174;-72
2021/11/01 17:00:43;;;;;;;1.20;0.53;;;;;;;11.28;81.33;98965.50;5070383;28;20163;-71
2021/11/01 17:21:40;;;;;;;0.30;0.23;;;;;;;10.87;84.98;98925.78;5070592;28;20568;-72
2021/11/01 17:37:25;;;;;;;1.50;0.50;;;;;;;10.71;85.95;98933.94;5070856;28;20632;-71
2021/11/01 18:51:28;;;;;;;3.37;3.07;;;;;;;10.11;92.01;98954.03;5071876;28;20683;-71
2021/11/01 18:54:17;;;;;;;1.67;1.00;;;;;;;10.04;92.37;98951.09;5072987;28;20629;-71
2021/11/01 18:56:43;;;;;;;1.03;0.93;;;;;;;9.97;92.97;98959.03;5072822;28;20174;-71
2021/11/01 18:59:10;;;;;;;1.93;0.70;;;;;;;9.93;93.56;98967.13;5072858;28;20163;-71
2021/11/01 19:01:39;;;;;;;2.97;0.87;;;;;;;9.89;93.76;98960.78;5073352;28;20170;-71
2021/11/01 19:04:13;;;;;;;0.80;0.50;;;;;;;9.86;94.32;98969.66;5075585;28;20178;-71
2021/11/01 19:09:29;;;;;;;2.20;0.70;;;;;;;9.88;94.35;98972.84;5073313;28;20173;-71
2021/11/01 21:24:47;;;;;;;4.70;3.43;;;;;;;8.44;100.00;98981.97;5070785;28;20562;-72
2021/11/01 21:27:12;;;;;;;1.87;1.10;;;;;;;8.42;100.00;98978.00;5070164;28;20204;-71
2021/11/01 21:29:38;;;;;;;2.47;1.37;;;;;;;8.40;100.00;98974.81;5069953;28;20567;-71
2021/11/01 21:32:06;;;;;;;1.73;0.90;;;;;;;8.37;100.00;98965.38;5069904;28;20236;-71
2021/11/01 21:36:58;;;;;;;1.27;1.00;;;;;;;8.46;100.00;98976.19;5070029;28;20224;-71
2021/11/01 21:39:24;;;;;;;2.03;1.17;;;;;;;8.53;100.00;98985.41;5069896;28;20167;-72
2021/11/01 21:41:49;;;;;;;1.30;0.90;;;;;;;8.44;100.00;98989.34;5070013;28;20661;-72
2021/11/01 21:44:14;;;;;;;1.20;0.80;;;;;;;8.33;100.00;98975.31;5070900;28;20170;-72
2021/11/01 21:46:40;;;;;;;2.60;1.10;;;;;;;8.23;100.00;98968.34;5073746;28;20167;-71
2021/11/01 21:49:05;;;;;;;2.53;1.13;;;;;;;8.15;100.00;98969.22;5073050;28;20223;-71
2021/11/01 21:51:37;;;;;;;1.03;0.90;;;;;;;8.09;100.00;98965.06;5073859;28;20194;-72
2021/11/01 21:54:22;;;;;;;2.80;1.23;;;;;;;8.00;100.00;98957.00;5073366;28;20166;-71
2021/11/01 21:56:56;;;;;;;3.60;0.70;;;;;;;7.92;100.00;98955.13;5073520;28;20174;-71
2021/11/01 22:10:32;;;;;;;1.00;0.70;;;;;;;8.04;100.00;98951.69;5073416;28;20232;-72
2021/11/01 22:21:13;;;;;;;2.63;0.70;;;;;;;8.15;100.00;98933.84;5073687;28;20602;-72
2021/11/01 22:23:47;;;;;;;1.70;0.63;;;;;;;8.21;100.00;98937.94;5073143;28;20159;-72
2021/11/01 22:42:11;;;;;;;2.27;1.70;;;;;;;8.33;100.00;98931.78;5073209;28;20174;-72
2021/11/01 22:57:55;;;;;;;1.13;0.80;;;;;;;7.87;100.00;98914.53;5053404;28;20194;-72
2021/11/01 23:00:29;;;;;;;1.27;0.90;;;;;;;7.85;100.00;98924.94;5072900;28;20201;-72
2021/11/01 23:03:01;;;;;;;0.97;0.70;;;;;;;7.89;100.00;98922.38;5071658;28;20269;-72
2021/11/01 23:32:41;;;;;;;4.07;1.43;;;;;;;8.10;100.00;98925.91;5072269;28;20688;-72
2021/11/01 23:35:07;;;;;;;1.60;1.23;;;;;;;8.08;100.00;98925.41;5072109;28;20194;-72
2021/11/01 23:37:32;;;;;;;1.63;0.83;;;;;;;8.07;100.00;98921.91;5072318;28;20167;-72
2021/11/01 23:39:57;;;;;;;0.97;0.83;;;;;;;8.06;100.00;98927.66;5071433;28;20174;-72
2021/11/01 23:42:23;;;;;;;0.50;0.50;;;;;;;8.09;100.00;98929.72;5072344;28;20269;-72
2021/11/01 23:44:53;;;;;;;2.50;1.03;;;;;;;8.09;100.00;98927.00;5072105;28;20174;-72
2021/11/01 23:47:19;;;;;;;1.40;0.70;;;;;;;8.01;100.00;98933.31;5072182;28;20163;-72
2021/11/01 23:49:44;;;;;;;0.60;0.57;;;;;;;8.13;100.00;98933.38;5072053;28;20527;-72
2021/11/01 23:52:12;;;;;;;1.97;1.60;;;;;;;8.18;100.00;98932.38;5071909;28;20301;-72
2021/11/01 23:54:42;;;;;;;1.30;1.00;;;;;;;8.19;100.00;98921.16;5071847;28;20202;-72
2021/11/01 23:57:08;;;;;;;1.87;0.70;;;;;;;8.14;100.00;98924.09;5071700;28;20178;-72
2021/11/01 23:59:34;;;;;;;3.93;1.20;;;;;;;8.13;100.00;98932.59;5071950;28;20212;-71
